createdAt,value
2023-03-16T06:02:58.926Z,7.65
2023-03-16T06:05:29.717Z,7.69
2023-03-16T06:08:06.644Z,7.76
2023-03-16T06:10:36.882Z,7.75
2023-03-16T06:13:13.619Z,7.77
2023-03-16T06:15:44.234Z,7.79
2023-03-16T06:18:23.606Z,7.79
2023-03-16T06:20:53.832Z,7.78
2023-03-16T06:23:30.642Z,7.83
2023-03-16T06:26:07.621Z,7.83
2023-03-16T06:28:37.784Z,7.81
2023-03-16T06:31:14.730Z,7.83
2023-03-16T06:33:47.479Z,7.87
2023-03-16T06:36:24.641Z,7.87
2023-03-16T06:38:54.772Z,7.86
2023-03-16T06:41:31.659Z,7.91
2023-03-16T06:44:01.806Z,7.90
2023-03-16T06:46:39.679Z,7.88
2023-03-16T06:49:12.315Z,7.90
2023-03-16T06:51:48.620Z,7.85
2023-03-16T06:54:18.849Z,7.95
2023-03-16T06:56:55.783Z,7.90
2023-03-16T06:59:34.669Z,7.97
2023-03-16T07:02:05.109Z,8.04
2023-03-16T07:04:44.678Z,7.98
2023-03-16T07:07:15.371Z,8.05
2023-03-16T07:09:51.626Z,8.04
2023-03-16T07:12:28.698Z,7.94
2023-03-16T07:14:58.762Z,7.90
2023-03-16T07:17:35.798Z,7.92
2023-03-16T07:20:10.960Z,7.84
2023-03-16T07:22:48.674Z,7.91
2023-03-16T07:25:25.809Z,7.96
2023-03-16T07:27:55.954Z,7.95
2023-03-16T07:30:32.681Z,8.01
2023-03-16T07:33:09.869Z,8.01
2023-03-16T07:35:42.646Z,7.98
2023-03-16T07:38:19.765Z,8.00
2023-03-16T07:40:49.842Z,8.08
2023-03-16T07:43:26.703Z,8.09
2023-03-16T07:45:57.218Z,8.06
2023-03-16T07:48:33.748Z,8.12
2023-03-16T07:51:06.567Z,8.20
2023-03-16T07:53:43.748Z,8.26
2023-03-16T07:56:13.926Z,8.30
2023-03-16T07:58:50.764Z,8.48
2023-03-16T08:01:27.742Z,8.43
2023-03-16T08:03:57.819Z,8.58
2023-03-16T08:06:37.773Z,8.57
2023-03-16T08:09:14.764Z,8.69
2023-03-16T08:11:44.947Z,8.73
2023-03-16T08:14:21.753Z,8.76
2023-03-16T08:16:52.049Z,8.76
2023-03-16T08:19:28.793Z,8.90
2023-03-16T08:22:08.748Z,8.93
2023-03-16T08:24:39.052Z,8.93
2023-03-16T08:27:15.781Z,9.07
2023-03-16T08:29:45.867Z,9.07
2023-03-16T08:32:22.764Z,9.16
2023-03-16T08:35:00.799Z,9.25
2023-03-16T08:37:35.409Z,9.32
2023-03-16T08:40:16.818Z,9.39
2023-03-16T08:42:50.181Z,9.40
2023-03-16T08:45:27.775Z,9.46
2023-03-16T08:47:57.844Z,9.54
2023-03-16T08:50:34.836Z,9.67
2023-03-16T08:53:07.773Z,9.64
2023-03-16T08:55:47.811Z,9.70
2023-03-16T08:58:17.988Z,9.69
2023-03-16T09:00:54.796Z,9.74
2023-03-16T09:03:25.081Z,9.74
2023-03-16T09:06:01.874Z,9.81
2023-03-16T09:08:41.965Z,9.76
2023-03-16T09:11:15.243Z,9.84
2023-03-16T09:13:53.247Z,9.87
2023-03-16T09:16:31.827Z,10.01
2023-03-16T09:19:02.481Z,10.03
2023-03-16T09:21:41.024Z,10.12
2023-03-16T09:24:20.969Z,10.21
2023-03-16T09:26:51.122Z,10.35
2023-03-16T09:29:29.103Z,10.48
2023-03-16T09:31:59.527Z,10.52
2023-03-16T09:34:35.810Z,10.74
2023-03-16T09:37:12.876Z,10.84
2023-03-16T09:39:45.721Z,10.98
2023-03-16T09:42:29.887Z,11.19
2023-03-16T09:45:18.662Z,11.32
2023-03-16T09:47:58.904Z,11.99
2023-03-16T09:50:47.817Z,12.36
2023-03-16T09:53:33.823Z,12.83
2023-03-16T09:56:11.851Z,13.54
2023-03-16T09:58:49.016Z,14.04
2023-03-16T10:01:30.884Z,14.51
2023-03-16T10:04:20.877Z,14.56
2023-03-16T10:07:08.980Z,14.48
2023-03-16T10:09:45.988Z,14.59
2023-03-16T10:12:25.888Z,14.75
2023-03-16T10:15:00.978Z,14.76
2023-03-16T10:17:56.944Z,14.67
2023-03-16T10:20:33.181Z,14.85
2023-03-16T10:23:17.982Z,14.87
2023-03-16T10:25:57.864Z,15.19
2023-03-16T10:28:39.072Z,15.38
2023-03-16T10:31:09.853Z,15.18
2023-03-16T10:33:46.933Z,15.30
2023-03-16T10:36:26.695Z,15.25
2023-03-16T10:39:06.936Z,15.26
2023-03-16T10:41:40.444Z,14.96
2023-03-16T10:44:24.980Z,14.87
2023-03-16T10:47:04.903Z,14.59
2023-03-16T10:49:50.962Z,14.46
2023-03-16T10:52:27.500Z,14.30
2023-03-16T10:55:07.963Z,14.17
2023-03-16T10:57:47.937Z,14.24
2023-03-16T11:00:26.033Z,14.15
2023-03-16T11:03:06.063Z,14.17
2023-03-16T11:05:38.410Z,14.13
2023-03-16T11:08:23.211Z,14.13
2023-03-16T11:11:01.179Z,14.00
2023-03-16T11:13:44.021Z,14.04
2023-03-16T11:16:30.773Z,14.15
2023-03-16T11:19:12.959Z,14.21
2023-03-16T11:21:50.998Z,14.13
2023-03-16T11:24:35.003Z,14.24
2023-03-16T11:27:12.866Z,14.37
2023-03-16T11:30:13.035Z,14.32
2023-03-16T11:33:00.138Z,14.51
2023-03-16T11:35:58.463Z,14.63
2023-03-16T11:38:43.022Z,14.69
2023-03-16T11:41:16.603Z,14.68
2023-03-16T11:44:02.059Z,14.65
2023-03-16T11:46:39.527Z,14.65
2023-03-16T11:49:42.007Z,14.69
2023-03-16T11:52:22.903Z,14.83
2023-03-16T11:55:17.026Z,14.62
2023-03-16T11:57:59.000Z,14.75
2023-03-16T12:00:47.066Z,14.77
2023-03-16T12:03:44.953Z,14.80
2023-03-16T12:06:40.093Z,14.90
2023-03-16T12:09:55.053Z,14.92
2023-03-16T12:12:38.982Z,15.11
2023-03-16T12:15:39.045Z,15.19
2023-03-16T12:18:28.057Z,15.13
2023-03-16T12:21:04.204Z,15.08
2023-03-16T12:23:48.086Z,15.14
2023-03-16T12:26:19.087Z,15.14
2023-03-16T12:28:56.116Z,15.10
2023-03-16T12:31:40.163Z,15.21
2023-03-16T12:34:25.962Z,15.44
2023-03-16T12:37:37.084Z,15.53
2023-03-16T12:40:25.671Z,15.79
2023-03-16T12:43:15.277Z,15.91
2023-03-16T12:45:55.559Z,16.05
2023-03-16T12:48:42.118Z,16.19
2023-03-16T12:51:20.110Z,16.26
2023-03-16T12:53:59.220Z,16.25
2023-03-16T12:56:42.144Z,16.25
2023-03-16T12:59:21.149Z,16.21
2023-03-16T13:02:01.210Z,16.26
2023-03-16T13:04:36.235Z,16.11
2023-03-16T13:07:18.149Z,16.13
2023-03-16T13:09:51.394Z,16.15
2023-03-16T13:12:39.116Z,16.16
2023-03-16T13:15:29.632Z,16.13
2023-03-16T13:18:29.146Z,16.19
2023-03-16T13:21:03.122Z,16.14
2023-03-16T13:24:05.165Z,16.23
2023-03-16T13:26:52.237Z,16.20
2023-03-16T13:29:34.119Z,16.19
2023-03-16T13:32:10.209Z,16.12
2023-03-16T13:34:56.186Z,16.05
2023-03-16T13:37:27.783Z,16.05
2023-03-16T13:40:07.199Z,16.04
2023-03-16T13:42:46.135Z,16.05
2023-03-16T13:45:22.539Z,15.98
2023-03-16T13:48:00.134Z,16.02
2023-03-16T13:50:41.227Z,16.14
2023-03-16T13:53:19.145Z,16.06
2023-03-16T13:55:58.222Z,16.10
2023-03-16T13:58:42.275Z,16.06
